Time;durP1;ratioP1;P1;durP2;ratioP2;P2;SDS_P1;SDS_P2;PMS_P1;PMS_P2;Temp;Humidity;BMP_temperature;BMP_pressure;BME280_temperature;BME280_humidity;BME280_pressure;Samples;Min_cycle;Max_cycle;Signal;HPM_P1;HPM_P2
2022/05/03 00:00:11;;;;;;;16.30;11.33;;;;;;;;;;1772596;79;21602;-80
2022/05/03 00:02:46;;;;;;;17.52;11.15;;;;;;;;;;1759735;80;21173;-80
2022/05/03 00:05:19;;;;;;;15.88;11.43;;;;;;;;;;1773799;80;21247;-79
2022/05/03 00:07:55;;;;;;;20.05;11.73;;;;;;;;;;1777460;80;21105;-79
2022/05/03 00:10:30;;;;;;;15.65;11.33;;;;;;;;;;1770265;79;21121;-79
2022/05/03 00:13:04;;;;;;;19.67;12.05;;;;;;;;;;1758689;80;21766;-80
2022/05/03 00:15:41;;;;;;;18.95;12.10;;;;;;;;;;1773463;79;21468;-79
2022/05/03 00:18:15;;;;;;;18.23;11.40;;;;;;;;;;1776602;79;21258;-80
2022/05/03 00:20:49;;;;;;;17.40;11.88;;;;;;;;;;1758102;80;21263;-79
2022/05/03 00:23:23;;;;;;;19.30;12.43;;;;;;;;;;1721533;81;21255;-79
2022/05/03 00:25:57;;;;;;;15.70;10.72;;;;;;;;;;1758041;80;21130;-79
2022/05/03 00:28:30;;;;;;;21.75;12.18;;;;;;;;;;1772820;79;21172;-77
2022/05/03 00:31:04;;;;;;;18.48;11.08;;;;;;;;;;1762926;80;21179;-79
2022/05/03 00:33:38;;;;;;;19.75;11.18;;;;;;;;;;1768736;79;21188;-79
2022/05/03 00:36:11;;;;;;;18.57;11.78;;;;;;;;;;1773872;79;21114;-79
2022/05/03 00:38:44;;;;;;;20.08;11.38;;;;;;;;;;1772932;79;21172;-80
2022/05/03 00:41:19;;;;;;;18.20;10.78;;;;;;;;;;1769491;79;21238;-80
2022/05/03 00:43:54;;;;;;;16.45;12.23;;;;;;;;;;1774959;80;21144;-79
2022/05/03 00:46:28;;;;;;;18.17;11.45;;;;;;;;;;1780414;79;21168;-79
2022/05/03 00:49:03;;;;;;;19.80;11.38;;;;;;;;;;1770815;79;21255;-79
2022/05/03 00:51:37;;;;;;;18.85;11.22;;;;;;;;;;1776983;79;21195;-80
2022/05/03 00:54:12;;;;;;;14.63;10.75;;;;;;;;;;1763743;80;21207;-79
2022/05/03 00:56:47;;;;;;;16.93;10.43;;;;;;;;;;1757565;80;21726;-78
2022/05/03 00:59:21;;;;;;;15.63;10.88;;;;;;;;;;1762837;79;21180;-79
2022/05/03 01:01:56;;;;;;;20.00;10.93;;;;;;;;;;1787197;79;21181;-78
2022/05/03 01:04:34;;;;;;;16.73;11.30;;;;;;;;;;1756543;79;21234;-79
2022/05/03 01:07:10;;;;;;;14.05;11.10;;;;;;;;;;1767230;79;21145;-79
2022/05/03 01:09:45;;;;;;;16.35;10.55;;;;;;;;;;1757860;80;21157;-79
2022/05/03 01:12:20;;;;;;;14.73;9.95;;;;;;;;;;1774186;79;21165;-79
2022/05/03 01:14:57;;;;;;;16.05;10.50;;;;;;;;;;1771439;79;21169;-82
2022/05/03 01:17:32;;;;;;;15.50;10.70;;;;;;;;;;1781418;79;21097;-83
2022/05/03 01:20:07;;;;;;;16.90;10.45;;;;;;;;;;1763481;79;21204;-81
2022/05/03 01:22:41;;;;;;;17.65;9.80;;;;;;;;;;1770197;80;21125;-81
2022/05/03 01:25:15;;;;;;;18.67;10.00;;;;;;;;;;1733055;81;21863;-81
2022/05/03 01:27:53;;;;;;;17.20;9.48;;;;;;;;;;1718946;82;21172;-81
2022/05/03 01:30:27;;;;;;;13.88;9.33;;;;;;;;;;1715091;81;21222;-80
2022/05/03 01:33:02;;;;;;;17.45;10.10;;;;;;;;;;1718927;81;21651;-81
2022/05/03 01:35:37;;;;;;;15.63;10.40;;;;;;;;;;1780445;78;21218;-82
2022/05/03 01:38:12;;;;;;;15.30;10.10;;;;;;;;;;1782659;79;21185;-82
2022/05/03 01:40:47;;;;;;;15.63;9.78;;;;;;;;;;1789133;79;21203;-81
2022/05/03 01:43:23;;;;;;;18.00;11.15;;;;;;;;;;1769786;78;22010;-82
2022/05/03 01:46:01;;;;;;;16.42;9.58;;;;;;;;;;1780390;78;21184;-71
2022/05/03 01:51:20;;;;;;;16.95;10.23;;;;;;;;;;1776505;79;21568;-71
2022/05/03 01:53:56;;;;;;;18.12;10.98;;;;;;;;;;1782275;79;22210;-72
2022/05/03 01:56:32;;;;;;;14.80;9.65;;;;;;;;;;1793425;78;21135;-71
2022/05/03 01:59:07;;;;;;;18.57;10.17;;;;;;;;;;1783478;79;21257;-71
2022/05/03 02:01:42;;;;;;;;;;;;;;;;;;1782487;79;22001;-71
2022/05/03 02:04:19;;;;;;;16.97;10.10;;;;;;;;;;1790359;78;20528;-69
2022/05/03 02:06:54;;;;;;;17.15;10.58;;;;;;;;;;1784857;78;21298;-69
2022/05/03 02:09:29;;;;;;;19.70;10.68;;;;;;;;;;1734549;80;21201;-71
2022/05/03 02:12:04;;;;;;;16.02;10.48;;;;;;;;;;1755466;79;21280;-70
2022/05/03 02:14:45;;;;;;;15.20;11.12;;;;;;;;;;1711479;81;21193;-70
2022/05/03 02:17:15;;;;;;;15.75;10.68;;;;;;;;;;1735315;82;21213;-70
2022/05/03 02:19:52;;;;;;;17.87;11.10;;;;;;;;;;1745944;80;21719;-70
2022/05/03 02:22:27;;;;;;;17.73;11.45;;;;;;;;;;1774614;79;21192;-70
2022/05/03 02:25:03;;;;;;;18.07;11.03;;;;;;;;;;1765912;79;21838;-70
2022/05/03 02:27:40;;;;;;;18.42;11.50;;;;;;;;;;1772073;80;21224;-70
2022/05/03 02:30:16;;;;;;;18.35;11.33;;;;;;;;;;1778249;79;21202;-70
2022/05/03 02:32:57;;;;;;;14.23;10.28;;;;;;;;;;1769482;79;21177;-69
2022/05/03 02:35:35;;;;;;;19.90;13.30;;;;;;;;;;1778980;79;21133;-70
2022/05/03 02:38:12;;;;;;;16.93;10.75;;;;;;;;;;1786402;78;21290;-69
2022/05/03 02:40:48;;;;;;;16.52;11.00;;;;;;;;;;1778849;79;21314;-70
2022/05/03 02:43:25;;;;;;;;;;;;;;;;;;1783955;79;21723;-70
2022/05/03 02:45:57;;;;;;;18.62;10.93;;;;;;;;;;1775789;79;20900;-69
2022/05/03 02:48:34;;;;;;;15.93;10.23;;;;;;;;;;1776809;79;21212;-70
2022/05/03 02:51:08;;;;;;;17.20;10.43;;;;;;;;;;1774919;79;21170;-70
2022/05/03 02:53:44;;;;;;;17.25;9.95;;;;;;;;;;1782058;79;21212;-71
2022/05/03 02:56:21;;;;;;;17.90;10.23;;;;;;;;;;1779806;79;21156;-71
2022/05/03 02:58:56;;;;;;;16.37;10.08;;;;;;;;;;1788125;78;21160;-70
2022/05/03 03:04:11;;;;;;;15.08;10.35;;;;;;;;;;1776472;79;21164;-70
2022/05/03 03:06:46;;;;;;;17.90;10.65;;;;;;;;;;1756976;80;21507;-72
2022/05/03 03:09:22;;;;;;;18.70;11.38;;;;;;;;;;1777561;79;21607;-72
2022/05/03 03:11:57;;;;;;;14.78;10.35;;;;;;;;;;1780565;79;21201;-68
2022/05/03 03:14:34;;;;;;;13.38;9.88;;;;;;;;;;1763537;79;21190;-71
2022/05/03 03:17:09;;;;;;;16.27;11.05;;;;;;;;;;1715034;82;21187;-71
2022/05/03 03:19:47;;;;;;;19.10;11.05;;;;;;;;;;1745931;80;21191;-71
2022/05/03 03:22:24;;;;;;;14.53;9.70;;;;;;;;;;1753399;81;21773;-71
2022/05/03 03:24:59;;;;;;;19.30;10.38;;;;;;;;;;1768854;79;21671;-71
2022/05/03 03:27:35;;;;;;;12.28;10.08;;;;;;;;;;1772048;79;21168;-71
2022/05/03 03:30:12;;;;;;;14.53;10.73;;;;;;;;;;1771275;80;21279;-71
2022/05/03 03:32:49;;;;;;;20.50;11.30;;;;;;;;;;1787658;78;21433;-72
2022/05/03 03:35:22;;;;;;;17.27;10.60;;;;;;;;;;1779302;78;21146;-71
2022/05/03 03:37:59;;;;;;;17.30;10.53;;;;;;;;;;1798035;78;21320;-70
2022/05/03 03:40:32;;;;;;;19.10;10.70;;;;;;;;;;1739432;80;21162;-70
2022/05/03 03:43:06;;;;;;;15.60;10.30;;;;;;;;;;1773007;79;21224;-70
2022/05/03 03:45:39;;;;;;;15.43;9.30;;;;;;;;;;1771522;79;21168;-70
2022/05/03 03:48:13;;;;;;;15.15;9.98;;;;;;;;;;1785874;78;21208;-72
2022/05/03 03:50:48;;;;;;;14.25;10.53;;;;;;;;;;1767149;80;21138;-71
2022/05/03 03:53:22;;;;;;;13.83;9.78;;;;;;;;;;1763816;79;22072;-72
2022/05/03 03:55:55;;;;;;;18.52;10.85;;;;;;;;;;1727443;81;21161;-70
2022/05/03 03:58:28;;;;;;;16.62;10.38;;;;;;;;;;1780408;79;21235;-71
2022/05/03 04:01:02;;;;;;;15.80;9.80;;;;;;;;;;1787084;79;21160;-71
2022/05/03 04:03:36;;;;;;;18.80;11.05;;;;;;;;;;1795025;78;21163;-70
2022/05/03 04:06:10;;;;;;;15.72;9.95;;;;;;;;;;1787840;78;21584;-70
2022/05/03 04:08:43;;;;;;;21.50;12.13;;;;;;;;;;1793896;78;21185;-71
2022/05/03 04:11:18;;;;;;;15.28;11.15;;;;;;;;;;1812362;78;21659;-71
2022/05/03 04:13:51;;;;;;;14.10;9.45;;;;;;;;;;1791093;78;21793;-70
2022/05/03 04:16:24;;;;;;;15.90;10.43;;;;;;;;;;1791008;78;21180;-70
2022/05/03 04:18:57;;;;;;;18.75;10.30;;;;;;;;;;1792174;79;21152;-70
2022/05/03 04:21:31;;;;;;;16.67;10.70;;;;;;;;;;1796196;78;21195;-71
2022/05/03 04:24:04;;;;;;;17.15;10.28;;;;;;;;;;1793737;78;21132;-70
2022/05/03 04:26:37;;;;;;;15.85;9.50;;;;;;;;;;1818872;78;21278;-70
2022/05/03 04:29:11;;;;;;;18.92;10.15;;;;;;;;;;1793598;78;21172;-70
2022/05/03 04:31:44;;;;;;;15.80;9.50;;;;;;;;;;1803861;78;21249;-70
2022/05/03 04:34:18;;;;;;;13.80;9.98;;;;;;;;;;1781604;78;21887;-70
2022/05/03 04:36:51;;;;;;;14.73;9.55;;;;;;;;;;1786554;78;21207;-70
2022/05/03 04:39:25;;;;;;;15.38;9.95;;;;;;;;;;1785525;79;21764;-70
2022/05/03 04:41:59;;;;;;;17.15;10.85;;;;;;;;;;1793771;78;21149;-71
2022/05/03 04:44:33;;;;;;;16.67;10.08;;;;;;;;;;1795945;78;21156;-70
2022/05/03 04:47:06;;;;;;;13.43;9.98;;;;;;;;;;1793367;78;21151;-72
2022/05/03 04:49:39;;;;;;;14.43;9.45;;;;;;;;;;1786741;78;21273;-72
2022/05/03 04:52:12;;;;;;;14.93;9.55;;;;;;;;;;1782743;78;21197;-71
2022/05/03 04:54:45;;;;;;;15.13;9.65;;;;;;;;;;1806800;78;21811;-71
2022/05/03 04:57:19;;;;;;;14.93;10.05;;;;;;;;;;1810888;78;21177;-71
2022/05/03 04:59:52;;;;;;;16.25;8.93;;;;;;;;;;1783120;79;21270;-72
2022/05/03 05:02:25;;;;;;;16.45;9.80;;;;;;;;;;1774736;78;21241;-70
2022/05/03 05:04:59;;;;;;;13.15;9.40;;;;;;;;;;1749257;79;21236;-69
2022/05/03 05:07:32;;;;;;;15.63;9.75;;;;;;;;;;1759180;80;21250;-71
2022/05/03 05:12:38;;;;;;;15.30;9.03;;;;;;;;;;1730681;81;21169;-72
2022/05/03 05:15:11;;;;;;;17.17;9.85;;;;;;;;;;1725336;81;21175;-72
2022/05/03 05:17:44;;;;;;;11.97;8.80;;;;;;;;;;1741512;81;21246;-72
2022/05/03 05:20:17;;;;;;;15.28;9.43;;;;;;;;;;1751766;81;21175;-71
2022/05/03 05:22:51;;;;;;;14.53;9.48;;;;;;;;;;1761999;79;21183;-72
2022/05/03 05:25:25;;;;;;;11.30;8.68;;;;;;;;;;1743429;80;22248;-72
2022/05/03 05:28:05;;;;;;;14.40;9.58;;;;;;;;;;1761293;79;21710;-72
2022/05/03 05:30:39;;;;;;;16.12;9.03;;;;;;;;;;1785196;78;21645;-71
2022/05/03 05:33:12;;;;;;;14.03;9.25;;;;;;;;;;1787460;79;21200;-72
2022/05/03 05:35:45;;;;;;;11.88;8.50;;;;;;;;;;1796248;79;21257;-71
2022/05/03 05:38:19;;;;;;;17.27;9.75;;;;;;;;;;1791734;78;21670;-71
2022/05/03 05:40:52;;;;;;;14.95;8.43;;;;;;;;;;1788610;79;21187;-71
2022/05/03 05:43:25;;;;;;;17.82;8.90;;;;;;;;;;1792272;78;21218;-71
2022/05/03 05:45:58;;;;;;;14.05;8.83;;;;;;;;;;1782242;78;21119;-71
2022/05/03 05:48:32;;;;;;;14.90;8.73;;;;;;;;;;1782193;78;21171;-70
2022/05/03 05:51:05;;;;;;;16.80;9.63;;;;;;;;;;1771829;79;21269;-71
2022/05/03 05:53:40;;;;;;;14.38;9.58;;;;;;;;;;1797203;78;21139;-70
2022/05/03 05:56:14;;;;;;;15.23;8.63;;;;;;;;;;1780302;79;21117;-71
2022/05/03 05:58:48;;;;;;;15.90;9.63;;;;;;;;;;1788203;78;21194;-71
2022/05/03 06:01:26;;;;;;;15.43;9.53;;;;;;;;;;1781415;78;21165;-71
2022/05/03 06:03:56;;;;;;;15.05;8.35;;;;;;;;;;1752000;79;21252;-71
2022/05/03 06:06:26;;;;;;;16.42;9.43;;;;;;;;;;1743428;80;21199;-71
2022/05/03 06:08:57;;;;;;;13.30;8.95;;;;;;;;;;1757913;79;21184;-71
2022/05/03 06:11:29;;;;;;;13.75;8.98;;;;;;;;;;1724847;81;21330;-71
2022/05/03 06:14:01;;;;;;;12.82;8.00;;;;;;;;;;1741417;81;21215;-70
2022/05/03 06:16:31;;;;;;;17.12;8.50;;;;;;;;;;1739307;81;21187;-70
2022/05/03 06:19:01;;;;;;;12.05;8.15;;;;;;;;;;1748871;80;21227;-70
2022/05/03 06:21:32;;;;;;;14.50;8.98;;;;;;;;;;1747477;80;21173;-70
2022/05/03 06:24:03;;;;;;;14.35;8.95;;;;;;;;;;1762914;80;21251;-71
2022/05/03 06:26:34;;;;;;;11.88;8.48;;;;;;;;;;1746628;80;21176;-71
2022/05/03 06:31:59;;;;;;;14.03;8.50;;;;;;;;;;1811689;77;21172;-69
2022/05/03 06:34:30;;;;;;;23.52;9.80;;;;;;;;;;1813240;78;21599;-69
2022/05/03 06:37:04;;;;;;;14.87;8.38;;;;;;;;;;1821233;77;21152;-69
2022/05/03 06:39:36;;;;;;;13.05;8.55;;;;;;;;;;1816745;77;21140;-71
2022/05/03 06:42:08;;;;;;;13.62;7.80;;;;;;;;;;1821878;77;21710;-69
2022/05/03 06:44:41;;;;;;;12.33;7.97;;;;;;;;;;1863197;76;21164;-71
2022/05/03 06:47:13;;;;;;;13.83;8.48;;;;;;;;;;1857964;74;21227;-70
2022/05/03 06:49:44;;;;;;;15.03;8.50;;;;;;;;;;1826403;76;21164;-71
2022/05/03 06:52:16;;;;;;;12.05;8.43;;;;;;;;;;1807990;78;22152;-72
2022/05/03 06:54:48;;;;;;;12.33;8.93;;;;;;;;;;1812434;77;21146;-71
2022/05/03 06:57:19;;;;;;;12.65;7.85;;;;;;;;;;1875738;74;21143;-71
2022/05/03 06:59:50;;;;;;;12.75;7.70;;;;;;;;;;1818972;77;21258;-72
2022/05/03 07:02:25;;;;;;;10.63;7.62;;;;;;;;;;1822094;76;21138;-72
2022/05/03 07:05:01;;;;;;;12.53;8.25;;;;;;;;;;1837069;77;21138;-72
2022/05/03 07:07:41;;;;;;;14.70;7.87;;;;;;;;;;1789274;79;21180;-71
2022/05/03 07:10:14;;;;;;;14.05;8.28;;;;;;;;;;1844363;76;21174;-71
2022/05/03 07:12:48;;;;;;;12.65;7.80;;;;;;;;;;1874221;74;21109;-72
2022/05/03 07:15:19;;;;;;;13.98;7.97;;;;;;;;;;1824525;76;21192;-71
2022/05/03 07:22:56;;;;;;;14.30;7.78;;;;;;;;;;1787246;78;21222;-79
2022/05/03 07:25:27;;;;;;;11.12;7.95;;;;;;;;;;1795218;78;21736;-79
2022/05/03 07:27:58;;;;;;;13.10;8.23;;;;;;;;;;1833134;76;21108;-78
2022/05/03 07:30:31;;;;;;;15.38;8.15;;;;;;;;;;1783242;78;21540;-79
2022/05/03 07:33:04;;;;;;;13.18;7.72;;;;;;;;;;1813407;79;21242;-78
2022/05/03 07:35:35;;;;;;;13.05;6.90;;;;;;;;;;1812110;79;21270;-78
2022/05/03 07:38:07;;;;;;;14.53;7.03;;;;;;;;;;1802796;77;21265;-78
2022/05/03 07:40:39;;;;;;;14.93;7.35;;;;;;;;;;1766423;80;21304;-77
2022/05/03 07:43:10;;;;;;;11.05;7.25;;;;;;;;;;1844978;76;21102;-79
2022/05/03 07:45:42;;;;;;;9.93;6.85;;;;;;;;;;1800198;78;21160;-69
2022/05/03 07:48:15;;;;;;;11.35;7.10;;;;;;;;;;1789320;77;21163;-70
2022/05/03 07:50:46;;;;;;;12.63;6.92;;;;;;;;;;1816859;77;21663;-69
2022/05/03 07:53:18;;;;;;;12.05;7.72;;;;;;;;;;1792426;79;21229;-70
2022/05/03 07:55:53;;;;;;;12.63;7.15;;;;;;;;;;1830928;76;21139;-69
2022/05/03 07:58:24;;;;;;;11.05;7.35;;;;;;;;;;1845716;76;21146;-69
2022/05/03 08:00:57;;;;;;;10.05;7.65;;;;;;;;;;1816112;77;21151;-70
2022/05/03 08:03:28;;;;;;;10.95;6.92;;;;;;;;;;1787291;78;21272;-70
2022/05/03 08:05:59;;;;;;;11.35;7.10;;;;;;;;;;1817358;77;21125;-70
2022/05/03 08:08:30;;;;;;;12.43;7.75;;;;;;;;;;1784822;78;21172;-79
2022/05/03 08:11:01;;;;;;;9.88;6.67;;;;;;;;;;1844010;76;21156;-81
2022/05/03 08:13:33;;;;;;;11.25;7.65;;;;;;;;;;1793605;76;21877;-78
2022/05/03 08:16:04;;;;;;;11.10;7.28;;;;;;;;;;1808837;77;22157;-78
2022/05/03 08:18:38;;;;;;;11.22;7.10;;;;;;;;;;1809727;77;21105;-79
2022/05/03 08:21:11;;;;;;;11.95;7.22;;;;;;;;;;1798106;77;21191;-79
2022/05/03 08:23:44;;;;;;;10.93;7.03;;;;;;;;;;1801869;78;21184;-79
2022/05/03 08:26:16;;;;;;;9.23;7.12;;;;;;;;;;1793561;77;21218;-80
2022/05/03 08:28:48;;;;;;;9.45;6.90;;;;;;;;;;1779682;79;21305;-80
2022/05/03 08:31:22;;;;;;;11.43;7.37;;;;;;;;;;1831935;76;21151;-79
2022/05/03 08:34:01;;;;;;;11.45;7.15;;;;;;;;;;1813519;79;21082;-79
2022/05/03 08:36:31;;;;;;;10.18;7.10;;;;;;;;;;1755711;80;21263;-79
2022/05/03 08:44:10;;;;;;;10.18;6.55;;;;;;;;;;1772231;78;21264;-78
2022/05/03 08:46:43;;;;;;;10.45;7.35;;;;;;;;;;1836978;76;21710;-79
2022/05/03 08:49:17;;;;;;;14.95;7.25;;;;;;;;;;1853273;75;21192;-79
2022/05/03 08:51:49;;;;;;;12.25;7.40;;;;;;;;;;1844455;76;21187;-79
2022/05/03 08:54:21;;;;;;;11.22;7.72;;;;;;;;;;1888169;76;21164;-78
2022/05/03 08:56:53;;;;;;;10.98;7.33;;;;;;;;;;1856620;74;21156;-79
2022/05/03 08:59:28;;;;;;;15.65;7.50;;;;;;;;;;1815076;74;21113;-79
2022/05/03 09:01:59;;;;;;;12.23;7.87;;;;;;;;;;1787929;78;21225;-79
2022/05/03 09:04:31;;;;;;;11.70;7.50;;;;;;;;;;1864074;75;21135;-79
2022/05/03 09:07:06;;;;;;;11.83;8.05;;;;;;;;;;1831434;77;21423;-79
2022/05/03 09:09:39;;;;;;;11.10;7.40;;;;;;;;;;1829483;75;21756;-79
2022/05/03 09:12:10;;;;;;;13.25;7.80;;;;;;;;;;1848069;75;21172;-79
2022/05/03 09:14:42;;;;;;;11.00;7.65;;;;;;;;;;1823871;77;21620;-79
2022/05/03 09:17:12;;;;;;;12.33;7.12;;;;;;;;;;1786873;79;21635;-79
2022/05/03 09:19:43;;;;;;;13.03;7.72;;;;;;;;;;1829225;77;21155;-80
2022/05/03 09:24:52;;;;;;;10.72;7.22;;;;;;;;;;1837219;77;21095;-78
2022/05/03 09:27:23;;;;;;;11.60;7.28;;;;;;;;;;1829646;76;21280;-79
2022/05/03 09:29:56;;;;;;;21.37;7.65;;;;;;;;;;1786223;79;21151;-79
2022/05/03 09:32:37;;;;;;;11.90;7.12;;;;;;;;;;1790316;78;21107;-80
2022/05/03 09:35:12;;;;;;;14.90;8.13;;;;;;;;;;1775658;78;21184;-79
2022/05/03 09:37:43;;;;;;;12.50;7.42;;;;;;;;;;1806416;79;21701;-80
2022/05/03 09:43:06;;;;;;;12.13;7.17;;;;;;;;;;1866288;74;21093;-79
2022/05/03 09:45:39;;;;;;;12.00;7.22;;;;;;;;;;1844758;75;21252;-79
2022/05/03 09:48:10;;;;;;;16.12;9.73;;;;;;;;;;1874248;74;21108;-79
2022/05/03 09:50:44;;;;;;;17.07;10.50;;;;;;;;;;1874482;74;21230;-79
2022/05/03 09:53:21;;;;;;;16.73;10.65;;;;;;;;;;1850800;74;21099;-80
2022/05/03 09:55:54;;;;;;;18.45;11.35;;;;;;;;;;1838414;76;21166;-79
2022/05/03 09:58:28;;;;;;;15.75;11.25;;;;;;;;;;1852952;73;21193;-80
2022/05/03 10:01:03;;;;;;;38.55;25.90;;;;;;;;;;1853977;76;21240;-81
2022/05/03 10:03:41;;;;;;;14.30;10.32;;;;;;;;;;1839859;75;21224;-80
2022/05/03 10:06:17;;;;;;;12.78;9.18;;;;;;;;;;1837162;76;21687;-79
2022/05/03 10:08:56;;;;;;;12.18;9.45;;;;;;;;;;1813935;76;21578;-78
2022/05/03 10:11:28;;;;;;;17.02;10.28;;;;;;;;;;1769507;79;21163;-79
2022/05/03 10:13:59;;;;;;;14.87;10.58;;;;;;;;;;1775041;78;21133;-81
2022/05/03 10:21:53;;;;;;;18.52;8.68;;;;;;;;;;1808647;78;21167;-79
2022/05/03 10:24:45;;;;;;;16.70;8.90;;;;;;;;;;1812601;77;21240;-79
2022/05/03 10:27:05;;;;;;;15.03;9.28;;;;;;;;;;1808208;77;21167;-81
2022/05/03 10:29:37;;;;;;;12.88;9.03;;;;;;;;;;1802318;78;21157;-79
2022/05/03 10:32:11;;;;;;;12.30;8.80;;;;;;;;;;1774576;79;21246;-80
2022/05/03 10:34:44;;;;;;;12.63;8.93;;;;;;;;;;1801853;77;21183;-79
2022/05/03 10:37:17;;;;;;;17.65;9.33;;;;;;;;;;1817459;76;21195;-79
2022/05/03 10:39:54;;;;;;;18.90;9.98;;;;;;;;;;1797641;77;21190;-80
2022/05/03 10:42:25;;;;;;;16.07;9.78;;;;;;;;;;1850004;74;21182;-80
2022/05/03 10:44:58;;;;;;;18.65;9.65;;;;;;;;;;1815889;77;21208;-80
2022/05/03 10:47:30;;;;;;;13.50;9.10;;;;;;;;;;1826174;76;21253;-79
2022/05/03 10:50:05;;;;;;;12.90;8.70;;;;;;;;;;1806732;76;21452;-81
2022/05/03 10:52:36;;;;;;;13.25;8.45;;;;;;;;;;1783647;78;21187;-79
2022/05/03 10:55:13;;;;;;;16.42;9.43;;;;;;;;;;1870572;74;21198;-78
2022/05/03 10:57:49;;;;;;;14.50;9.80;;;;;;;;;;1875874;74;21099;-80
2022/05/03 11:00:22;;;;;;;15.80;9.10;;;;;;;;;;1808096;77;21196;-80
2022/05/03 11:02:54;;;;;;;18.10;9.70;;;;;;;;;;1795684;77;21197;-81
2022/05/03 11:05:26;;;;;;;13.78;9.38;;;;;;;;;;1809939;76;21113;-78
2022/05/03 11:07:58;;;;;;;15.30;9.80;;;;;;;;;;1813798;76;21178;-79
2022/05/03 11:10:31;;;;;;;19.87;10.53;;;;;;;;;;1796449;76;21207;-79
2022/05/03 11:13:02;;;;;;;17.52;9.35;;;;;;;;;;1777935;78;21096;-79
2022/05/03 11:15:34;;;;;;;14.35;9.25;;;;;;;;;;1817133;77;21813;-81
2022/05/03 11:18:06;;;;;;;17.10;10.28;;;;;;;;;;1805101;77;21144;-79
2022/05/03 11:20:38;;;;;;;16.42;9.45;;;;;;;;;;1799968;77;21196;-79
2022/05/03 11:23:10;;;;;;;14.43;10.15;;;;;;;;;;1799792;77;21109;-79
2022/05/03 11:25:41;;;;;;;16.90;10.25;;;;;;;;;;1813816;77;21215;-79
2022/05/03 11:28:13;;;;;;;15.83;9.45;;;;;;;;;;1812422;77;21228;-79
2022/05/03 11:30:45;;;;;;;15.23;10.38;;;;;;;;;;1806217;77;21297;-79
2022/05/03 11:33:18;;;;;;;13.95;9.30;;;;;;;;;;1837217;76;21166;-80
2022/05/03 11:35:50;;;;;;;16.12;9.70;;;;;;;;;;1861577;74;21982;-79
2022/05/03 11:38:23;;;;;;;12.65;10.15;;;;;;;;;;1843417;74;21186;-79
2022/05/03 11:40:56;;;;;;;16.70;10.43;;;;;;;;;;1843202;74;21191;-79
2022/05/03 11:43:28;;;;;;;13.20;9.93;;;;;;;;;;1867985;74;21238;-79
2022/05/03 11:46:00;;;;;;;13.98;9.88;;;;;;;;;;1867169;74;21184;-80
2022/05/03 11:48:34;;;;;;;14.58;9.73;;;;;;;;;;1869788;74;21179;-80
2022/05/03 11:56:12;;;;;;;16.05;11.12;;;;;;;;;;1853944;75;21164;-79
2022/05/03 11:58:46;;;;;;;18.45;11.05;;;;;;;;;;1858193;74;21197;-79
2022/05/03 12:01:20;;;;;;;16.50;11.68;;;;;;;;;;1837792;76;21119;-80
2022/05/03 12:03:53;;;;;;;15.38;11.15;;;;;;;;;;1817543;77;21986;-80
2022/05/03 12:06:26;;;;;;;17.23;11.53;;;;;;;;;;1759453;79;21234;-80
2022/05/03 12:08:57;;;;;;;14.50;11.10;;;;;;;;;;1756538;80;21181;-80
2022/05/03 12:11:29;;;;;;;14.30;11.40;;;;;;;;;;1736286;81;21141;-79
2022/05/03 12:14:00;;;;;;;13.10;10.72;;;;;;;;;;1826852;77;21231;-79
2022/05/03 12:16:34;;;;;;;18.27;11.00;;;;;;;;;;1818002;78;21190;-80
2022/05/03 12:19:08;;;;;;;17.55;11.88;;;;;;;;;;1820474;77;21245;-80
2022/05/03 12:21:43;;;;;;;17.80;10.70;;;;;;;;;;1809763;76;21166;-79
2022/05/03 12:24:14;;;;;;;15.80;10.90;;;;;;;;;;1818289;77;21252;-79
2022/05/03 12:26:45;;;;;;;16.30;11.55;;;;;;;;;;1804421;77;21193;-79
2022/05/03 12:29:17;;;;;;;14.55;10.90;;;;;;;;;;1794947;78;21597;-79
2022/05/03 12:31:48;;;;;;;16.40;10.68;;;;;;;;;;1795438;78;21732;-78
2022/05/03 12:34:21;;;;;;;16.30;11.65;;;;;;;;;;1800584;78;21110;-78
2022/05/03 12:36:53;;;;;;;18.73;11.45;;;;;;;;;;1804823;77;21272;-79
2022/05/03 12:39:30;;;;;;;15.43;10.88;;;;;;;;;;1756058;79;21735;-79
2022/05/03 12:42:01;;;;;;;18.82;12.15;;;;;;;;;;1749604;79;21161;-79
2022/05/03 12:44:37;;;;;;;14.45;10.10;;;;;;;;;;1821224;77;21629;-79
2022/05/03 12:47:07;;;;;;;14.25;9.98;;;;;;;;;;1810640;78;21191;-80
2022/05/03 12:49:39;;;;;;;17.15;10.58;;;;;;;;;;1824859;78;21131;-79
2022/05/03 12:52:11;;;;;;;15.20;11.08;;;;;;;;;;1801824;78;21132;-80
2022/05/03 12:54:44;;;;;;;12.18;9.98;;;;;;;;;;1804900;79;21183;-79
2022/05/03 12:59:49;;;;;;;14.00;10.35;;;;;;;;;;1784858;78;21174;-78
2022/05/03 13:02:21;;;;;;;14.63;10.43;;;;;;;;;;1789076;77;21184;-81
2022/05/03 13:04:55;;;;;;;15.20;10.10;;;;;;;;;;1819015;78;21218;-81
2022/05/03 13:07:26;;;;;;;12.55;10.53;;;;;;;;;;1812276;77;21256;-79
2022/05/03 13:10:02;;;;;;;14.93;10.38;;;;;;;;;;1815023;77;21180;-80
2022/05/03 13:12:30;;;;;;;14.03;9.45;;;;;;;;;;1813066;77;21153;-79
2022/05/03 13:15:01;;;;;;;15.53;9.50;;;;;;;;;;1829127;77;21545;-79
2022/05/03 13:17:33;;;;;;;16.50;10.60;;;;;;;;;;1818359;77;21281;-81
2022/05/03 13:20:04;;;;;;;17.65;10.72;;;;;;;;;;1819668;77;21700;-80
2022/05/03 13:22:36;;;;;;;14.25;9.68;;;;;;;;;;1813823;77;21183;-80
2022/05/03 13:25:08;;;;;;;14.60;9.60;;;;;;;;;;1802901;77;21236;-79
2022/05/03 13:27:39;;;;;;;13.18;8.90;;;;;;;;;;1807536;77;21569;-79
2022/05/03 13:30:11;;;;;;;14.65;9.30;;;;;;;;;;1807721;77;21145;-79
2022/05/03 13:32:42;;;;;;;12.03;9.35;;;;;;;;;;1784994;79;21269;-79
2022/05/03 13:40:28;;;;;;;12.55;9.48;;;;;;;;;;1763833;78;21166;-80
2022/05/03 13:40:34;;;;;;;12.13;9.03;;;;;;;;;;1756193;79;21342;-78
2022/05/03 13:42:55;;;;;;;12.98;9.13;;;;;;;;;;1775412;78;21277;-78
2022/05/03 13:45:27;;;;;;;13.53;9.25;;;;;;;;;;1759518;78;21152;-79
2022/05/03 13:47:59;;;;;;;14.15;9.05;;;;;;;;;;1746023;80;21233;-79
2022/05/03 13:50:32;;;;;;;15.32;8.93;;;;;;;;;;1802306;77;21234;-79
2022/05/03 13:53:04;;;;;;;13.48;9.18;;;;;;;;;;1803255;77;21180;-80
2022/05/03 13:55:38;;;;;;;12.78;9.00;;;;;;;;;;1827628;77;21130;-79
2022/05/03 13:58:10;;;;;;;14.18;9.93;;;;;;;;;;1816072;77;21186;-79
2022/05/03 14:00:43;;;;;;;12.25;9.33;;;;;;;;;;1828780;77;21114;-79
2022/05/03 14:03:16;;;;;;;14.03;8.93;;;;;;;;;;1829178;77;21099;-79
2022/05/03 14:05:47;;;;;;;13.72;9.35;;;;;;;;;;1792857;78;21288;-80
2022/05/03 14:08:19;;;;;;;13.65;9.98;;;;;;;;;;1842964;76;21160;-80
2022/05/03 14:10:51;;;;;;;12.50;9.00;;;;;;;;;;1817297;77;21221;-78
2022/05/03 14:13:25;;;;;;;15.50;9.60;;;;;;;;;;1812481;77;21194;-80
2022/05/03 14:15:59;;;;;;;15.63;9.65;;;;;;;;;;1796772;77;22074;-79
2022/05/03 14:18:32;;;;;;;14.60;9.83;;;;;;;;;;1818044;77;21731;-79
2022/05/03 14:21:05;;;;;;;15.55;9.58;;;;;;;;;;1800221;77;21133;-78
2022/05/03 14:23:40;;;;;;;12.13;8.90;;;;;;;;;;1784992;78;21245;-78
2022/05/03 14:26:14;;;;;;;17.52;9.18;;;;;;;;;;1781818;78;21274;-79
2022/05/03 14:28:49;;;;;;;11.93;8.65;;;;;;;;;;1824843;75;21192;-80
2022/05/03 14:31:25;;;;;;;13.70;9.50;;;;;;;;;;1819786;77;21119;-80
2022/05/03 14:33:59;;;;;;;15.90;9.45;;;;;;;;;;1819975;78;21170;-80
2022/05/03 14:36:32;;;;;;;14.63;9.18;;;;;;;;;;1820860;77;21283;-80
2022/05/03 14:39:14;;;;;;;14.70;9.35;;;;;;;;;;1811246;77;21229;-79
2022/05/03 14:41:46;;;;;;;10.68;8.80;;;;;;;;;;1811289;77;21253;-79
2022/05/03 14:44:22;;;;;;;12.13;9.45;;;;;;;;;;1854753;75;21184;-80
2022/05/03 14:46:54;;;;;;;13.60;9.28;;;;;;;;;;1797192;77;21164;-79
2022/05/03 14:49:26;;;;;;;13.30;8.98;;;;;;;;;;1799032;78;21189;-79
2022/05/03 14:52:00;;;;;;;12.28;9.05;;;;;;;;;;1805045;77;21233;-80
2022/05/03 14:54:34;;;;;;;15.35;9.50;;;;;;;;;;1801411;78;21181;-78
2022/05/03 15:03:05;;;;;;;14.25;10.20;;;;;;;;;;1821414;76;21237;-80
2022/05/03 15:04:58;;;;;;;14.35;10.10;;;;;;;;;;1810341;77;21119;-80
2022/05/03 15:07:29;;;;;;;12.82;9.83;;;;;;;;;;1813426;75;21216;-79
2022/05/03 15:10:03;;;;;;;13.18;10.00;;;;;;;;;;1793708;77;21100;-78
2022/05/03 15:12:37;;;;;;;11.50;8.93;;;;;;;;;;1792063;77;21181;-79
2022/05/03 15:15:12;;;;;;;12.63;9.40;;;;;;;;;;1800683;77;21138;-79
2022/05/03 15:17:46;;;;;;;12.75;9.58;;;;;;;;;;1815349;76;21083;-79
2022/05/03 15:20:20;;;;;;;13.03;9.78;;;;;;;;;;1827761;76;21141;-79
2022/05/03 15:25:29;;;;;;;12.73;9.80;;;;;;;;;;1823119;76;21186;-79
2022/05/03 15:28:06;;;;;;;14.23;9.90;;;;;;;;;;1815719;76;21165;-80
2022/05/03 15:30:41;;;;;;;14.47;9.73;;;;;;;;;;1836573;76;21210;-79
2022/05/03 15:33:14;;;;;;;15.70;10.88;;;;;;;;;;1814677;77;21228;-79
2022/05/03 15:35:47;;;;;;;16.12;9.70;;;;;;;;;;1819798;76;21173;-79
2022/05/03 15:38:19;;;;;;;15.95;10.35;;;;;;;;;;1832295;77;21170;-80
2022/05/03 15:40:53;;;;;;;14.58;10.15;;;;;;;;;;1814612;77;21751;-79
2022/05/03 15:43:30;;;;;;;;;;;;;;;;;;1819179;77;21077;-80
2022/05/03 15:46:07;;;;;;;13.95;10.10;;;;;;;;;;1825143;77;20198;-77
2022/05/03 15:48:35;;;;;;;12.65;10.05;;;;;;;;;;1813651;77;21171;-80
2022/05/03 15:51:08;;;;;;;14.23;10.72;;;;;;;;;;1837905;76;21646;-77